Time;durP1;ratioP1;P1;durP2;ratioP2;P2;SDS_P1;SDS_P2;PMS_P1;PMS_P2;Temp;Humidity;BMP_temperature;BMP_pressure;BME280_temperature;BME280_humidity;BME280_pressure;Samples;Min_cycle;Max_cycle;Signal;HPM_P1;HPM_P2
2023/01/15 00:00:17;;;;;;;16.20;9.52;;;7.80;99.90;;;;;;5206850;28;20026;-69
2023/01/15 00:02:48;;;;;;;14.13;7.75;;;8.30;99.90;;;;;;5206670;28;20113;-69
2023/01/15 00:05:19;;;;;;;11.75;8.45;;;8.50;99.90;;;;;;5206754;28;20611;-75
2023/01/15 00:07:51;;;;;;;17.13;8.48;;;8.40;99.90;;;;;;5206566;28;20026;-70
2023/01/15 00:10:21;;;;;;;16.38;8.27;;;8.00;99.90;;;;;;5206553;28;20415;-69
2023/01/15 00:12:52;;;;;;;12.52;7.95;;;8.40;99.90;;;;;;5206525;28;20018;-70
2023/01/15 00:15:23;;;;;;;11.68;7.82;;;8.20;99.90;;;;;;5206261;28;20037;-69
2023/01/15 00:17:54;;;;;;;14.02;8.20;;;7.90;99.90;;;;;;5206486;28;20029;-70
2023/01/15 00:20:24;;;;;;;15.05;8.75;;;7.80;99.90;;;;;;5206359;28;20523;-71
2023/01/15 00:22:55;;;;;;;13.80;9.07;;;7.90;99.90;;;;;;5206194;28;20118;-73
2023/01/15 00:28:15;;;;;;;12.77;8.00;;;7.80;99.90;;;;;;5206525;28;20029;-74
2023/01/15 00:30:46;;;;;;;14.55;8.00;;;8.10;99.90;;;;;;5206289;28;20025;-72
2023/01/15 00:33:16;;;;;;;15.57;7.68;;;7.60;99.90;;;;;;5206051;28;20103;-73
2023/01/15 00:35:47;;;;;;;9.95;7.78;;;7.80;99.90;;;;;;5206202;28;20112;-69
2023/01/15 00:38:18;;;;;;;10.70;7.88;;;8.10;99.90;;;;;;5206085;28;20087;-69
2023/01/15 00:40:51;;;;;;;14.05;7.93;;;7.70;99.90;;;;;;5204633;28;20025;-68
2023/01/15 00:43:22;;;;;;;14.05;7.80;;;7.80;99.90;;;;;;5205070;28;20037;-75
2023/01/15 00:45:53;;;;;;;10.38;7.82;;;8.10;99.90;;;;;;5205545;28;20057;-69
2023/01/15 00:48:24;;;;;;;11.25;8.35;;;7.80;99.90;;;;;;5205818;28;20076;-69
2023/01/15 00:50:54;;;;;;;15.95;8.43;;;8.10;99.90;;;;;;5205887;28;20381;-71
2023/01/15 00:53:26;;;;;;;11.98;7.70;;;7.90;99.90;;;;;;5205756;28;20028;-69
2023/01/15 00:55:56;;;;;;;10.57;7.35;;;7.80;99.90;;;;;;5205789;28;20368;-72
2023/01/15 00:58:27;;;;;;;11.75;7.50;;;7.80;99.90;;;;;;5205757;28;20100;-72
2023/01/15 01:00:59;;;;;;;12.68;8.55;;;7.80;99.90;;;;;;5205707;28;20021;-69
2023/01/15 01:03:30;;;;;;;8.48;7.28;;;8.40;99.90;;;;;;5205533;28;20079;-70
2023/01/15 01:06:02;;;;;;;10.52;7.40;;;8.10;99.90;;;;;;5205484;28;20469;-69
2023/01/15 01:08:33;;;;;;;16.60;8.00;;;8.30;99.90;;;;;;5205574;28;20083;-74
2023/01/15 01:11:06;;;;;;;13.85;7.80;;;8.20;99.90;;;;;;5205710;28;20021;-74
2023/01/15 01:13:37;;;;;;;12.73;7.32;;;7.90;99.90;;;;;;5205829;28;20060;-69
2023/01/15 01:16:32;;;;;;;8.32;7.03;;;8.40;99.90;;;;;;5205564;28;20072;-69
2023/01/15 01:19:31;;;;;;;10.65;7.80;;;8.10;99.90;;;;;;5205387;28;20029;-70
2023/01/15 01:22:01;;;;;;;15.23;7.40;;;8.30;99.90;;;;;;5204030;28;20038;-69
2023/01/15 01:24:32;;;;;;;10.98;7.72;;;7.90;99.90;;;;;;5205269;28;20425;-69
2023/01/15 01:27:03;;;;;;;9.93;7.13;;;8.10;99.90;;;;;;5205243;28;20496;-69
2023/01/15 01:29:34;;;;;;;12.82;7.20;;;7.80;99.90;;;;;;5173510;28;20044;-69
2023/01/15 01:32:05;;;;;;;11.57;6.93;;;8.10;99.90;;;;;;5164553;28;20034;-74
2023/01/15 01:34:36;;;;;;;13.15;7.40;;;7.90;99.90;;;;;;5175625;28;20030;-69
2023/01/15 01:37:06;;;;;;;9.90;7.55;;;8.20;99.90;;;;;;5184891;28;20018;-68
2023/01/15 01:39:37;;;;;;;10.18;7.43;;;7.70;99.90;;;;;;5184989;28;20034;-70
2023/01/15 01:42:15;;;;;;;8.25;6.40;;;7.50;99.90;;;;;;5184937;28;20541;-69
2023/01/15 01:44:46;;;;;;;12.23;6.97;;;7.80;99.90;;;;;;5184666;28;20045;-69
2023/01/15 01:47:21;;;;;;;10.98;7.25;;;7.90;99.90;;;;;;5184829;28;20026;-69
2023/01/15 01:49:57;;;;;;;9.77;7.18;;;7.90;99.90;;;;;;5183484;28;20465;-70
2023/01/15 01:52:37;;;;;;;11.30;7.72;;;7.40;99.90;;;;;;5184775;28;20022;-69
2023/01/15 01:55:09;;;;;;;12.00;6.85;;;7.90;99.90;;;;;;5186059;28;20377;-69
2023/01/15 01:57:40;;;;;;;9.35;7.00;;;7.90;99.90;;;;;;5188764;28;20394;-75
2023/01/15 02:00:14;;;;;;;9.38;7.05;;;7.70;99.90;;;;;;5187368;28;20465;-69
2023/01/15 02:02:46;;;;;;;11.27;7.07;;;7.80;99.90;;;;;;5188642;28;20038;-71
2023/01/15 02:05:30;;;;;;;10.70;6.50;;;7.80;99.90;;;;;;5179509;28;20076;-75
2023/01/15 02:08:01;;;;;;;12.30;6.60;;;7.50;99.90;;;;;;5168440;28;20495;-70
2023/01/15 02:10:32;;;;;;;12.10;7.75;;;7.60;99.90;;;;;;5168361;28;20030;-71
2023/01/15 02:13:15;;;;;;;9.48;7.20;;;7.50;99.90;;;;;;5168190;28;20022;-69
2023/01/15 02:16:15;;;;;;;8.35;7.13;;;7.80;99.90;;;;;;5167945;28;20102;-69
2023/01/15 02:19:11;;;;;;;11.02;7.20;;;7.80;99.90;;;;;;5160262;28;20037;-69
2023/01/15 02:22:00;;;;;;;10.65;7.55;;;7.50;99.90;;;;;;5168299;28;20038;-69
2023/01/15 02:24:55;;;;;;;12.63;7.57;;;7.80;99.90;;;;;;5183160;28;20421;-68
2023/01/15 02:27:26;;;;;;;11.60;7.47;;;7.40;99.90;;;;;;5168126;28;20109;-69
2023/01/15 02:30:07;;;;;;;9.85;6.97;;;7.40;99.90;;;;;;5168394;28;20429;-68
2023/01/15 02:33:08;;;;;;;10.73;7.57;;;7.70;99.90;;;;;;5187489;28;20109;-69
2023/01/15 02:35:53;;;;;;;14.63;8.55;;;7.60;99.90;;;;;;5187616;28;20030;-77
2023/01/15 02:38:27;;;;;;;12.13;7.32;;;7.30;99.90;;;;;;5188025;28;20526;-74
2023/01/15 02:41:01;;;;;;;13.55;7.60;;;7.50;99.90;;;;;;5187950;28;20029;-68
2023/01/15 02:43:35;;;;;;;14.05;9.43;;;7.40;99.90;;;;;;5187710;28;20041;-74
2023/01/15 02:46:07;;;;;;;12.85;8.15;;;7.60;99.90;;;;;;5187893;28;20046;-76
2023/01/15 02:48:43;;;;;;;15.40;8.88;;;7.60;99.90;;;;;;5175344;28;20034;-71
2023/01/15 02:51:18;;;;;;;14.50;9.23;;;7.40;99.90;;;;;;5167792;28;20022;-69
2023/01/15 02:53:52;;;;;;;14.70;9.90;;;7.30;99.90;;;;;;5167574;28;20030;-71
2023/01/15 02:56:27;;;;;;;16.73;9.70;;;7.40;99.90;;;;;;5167729;28;20029;-71
2023/01/15 02:59:05;;;;;;;14.07;9.55;;;7.30;99.90;;;;;;5167356;28;20030;-71
2023/01/15 03:01:43;;;;;;;14.85;10.13;;;7.60;99.90;;;;;;5167409;28;20373;-75
2023/01/15 03:04:39;;;;;;;20.90;10.65;;;7.30;99.90;;;;;;5167254;28;20049;-68
2023/01/15 03:07:29;;;;;;;19.52;9.15;;;7.20;99.90;;;;;;5166512;28;20030;-75
2023/01/15 03:10:00;;;;;;;17.08;10.18;;;7.30;99.90;;;;;;5167471;28;20030;-72
2023/01/15 03:13:04;;;;;;;18.15;8.68;;;7.70;99.90;;;;;;5167280;28;20494;-69
2023/01/15 03:18:49;;;;;;;12.65;8.52;;;7.30;99.90;;;;;;5167013;28;20494;-69
2023/01/15 03:21:47;;;;;;;16.35;10.70;;;7.20;99.90;;;;;;5166869;28;20027;-75
2023/01/15 03:24:26;;;;;;;15.18;9.77;;;7.40;99.90;;;;;;5159414;28;20055;-69
2023/01/15 03:26:57;;;;;;;19.23;10.20;;;7.50;99.90;;;;;;5166828;28;20026;-75
2023/01/15 03:29:35;;;;;;;15.25;9.18;;;7.30;99.90;;;;;;5166769;28;20026;-69
2023/01/15 03:32:06;;;;;;;16.95;9.65;;;7.30;99.90;;;;;;5166774;28;20026;-69
2023/01/15 03:34:48;;;;;;;16.60;9.15;;;7.30;99.90;;;;;;5166592;28;20026;-69
2023/01/15 03:37:22;;;;;;;19.48;9.73;;;7.20;99.90;;;;;;5166795;28;20121;-71
2023/01/15 03:39:55;;;;;;;18.50;9.73;;;7.40;99.90;;;;;;5166856;28;20775;-70
2023/01/15 03:42:42;;;;;;;16.25;8.80;;;7.20;99.90;;;;;;5166676;28;20042;-69
2023/01/15 03:45:25;;;;;;;18.52;10.63;;;7.20;99.90;;;;;;5166224;28;20116;-68
2023/01/15 03:48:19;;;;;;;19.50;10.52;;;7.20;99.90;;;;;;5166318;28;20022;-74
2023/01/15 03:51:01;;;;;;;15.93;9.30;;;7.10;99.90;;;;;;5166360;28;20030;-68
2023/01/15 03:53:36;;;;;;;16.45;10.23;;;7.30;99.90;;;;;;5166292;28;20033;-68
2023/01/15 03:56:18;;;;;;;18.75;10.10;;;7.40;99.90;;;;;;5166437;28;20033;-69
2023/01/15 03:59:16;;;;;;;19.73;10.40;;;7.20;99.90;;;;;;5166408;28;20023;-69
2023/01/15 04:01:49;;;;;;;16.92;9.85;;;7.40;99.90;;;;;;5166163;28;21232;-69
2023/01/15 04:04:20;;;;;;;17.25;10.00;;;7.30;99.90;;;;;;5165888;28;20509;-72
2023/01/15 04:06:53;;;;;;;14.48;10.02;;;7.30;99.90;;;;;;5165967;28;20021;-69
2023/01/15 04:09:24;;;;;;;17.75;9.05;;;7.20;99.90;;;;;;5166019;28;20089;-70
2023/01/15 04:11:59;;;;;;;20.27;9.93;;;7.20;99.90;;;;;;5165894;28;20027;-69
2023/01/15 04:14:30;;;;;;;19.63;10.60;;;7.00;99.90;;;;;;5165754;28;20074;-75
2023/01/15 04:17:01;;;;;;;16.48;9.55;;;7.30;99.90;;;;;;5165694;28;20054;-69
2023/01/15 04:19:32;;;;;;;13.63;9.45;;;7.40;99.90;;;;;;5165727;28;20062;-69
2023/01/15 04:22:03;;;;;;;16.33;10.20;;;7.10;99.90;;;;;;5167366;28;20106;-70
2023/01/15 04:24:34;;;;;;;18.20;9.55;;;7.40;99.90;;;;;;5165522;28;20077;-76
2023/01/15 04:27:04;;;;;;;15.85;10.02;;;7.40;99.90;;;;;;5165643;28;20105;-70
2023/01/15 04:29:35;;;;;;;16.17;10.10;;;7.20;99.90;;;;;;5165497;28;20490;-74
2023/01/15 04:32:06;;;;;;;12.65;8.65;;;7.40;99.90;;;;;;5165446;28;20022;-69
2023/01/15 04:34:37;;;;;;;17.27;9.77;;;7.30;99.90;;;;;;5165412;28;20033;-69
2023/01/15 04:37:08;;;;;;;16.40;9.65;;;7.20;99.90;;;;;;5165533;28;20179;-69
2023/01/15 04:39:39;;;;;;;24.23;9.88;;;7.30;99.90;;;;;;5165486;28;20169;-69
2023/01/15 04:45:03;;;;;;;17.23;9.32;;;7.40;99.90;;;;;;5165248;28;20097;-74
2023/01/15 04:47:34;;;;;;;21.00;9.63;;;7.70;99.90;;;;;;5165674;28;20018;-69
2023/01/15 04:50:05;;;;;;;21.73;9.02;;;7.40;99.90;;;;;;5165481;28;20045;-69
2023/01/15 04:52:36;;;;;;;21.38;8.98;;;7.70;99.90;;;;;;5165208;28;20045;-69
2023/01/15 04:55:07;;;;;;;14.63;8.07;;;7.50;99.90;;;;;;5165086;28;20061;-70
2023/01/15 04:57:38;;;;;;;15.32;9.02;;;7.60;99.90;;;;;;5165172;28;20453;-69
2023/01/15 05:00:10;;;;;;;13.93;8.13;;;7.60;99.90;;;;;;5164966;28;20062;-73
2023/01/15 05:02:41;;;;;;;15.77;9.70;;;7.50;99.90;;;;;;5163503;28;20038;-73
2023/01/15 05:05:11;;;;;;;17.27;9.13;;;7.60;99.90;;;;;;5164918;28;20081;-72
2023/01/15 05:07:42;;;;;;;16.05;7.55;;;7.70;99.90;;;;;;5164877;28;20018;-70
2023/01/15 05:10:13;;;;;;;13.68;6.85;;;7.50;99.90;;;;;;5164792;28;20031;-72
2023/01/15 05:12:44;;;;;;;13.13;7.50;;;7.60;99.90;;;;;;5164787;28;20033;-69
2023/01/15 05:15:15;;;;;;;11.15;6.45;;;7.40;99.90;;;;;;5164564;28;20467;-74
2023/01/15 05:17:45;;;;;;;10.90;7.13;;;7.30;99.90;;;;;;5164751;28;20088;-75
2023/01/15 05:20:16;;;;;;;7.25;5.57;;;7.30;99.90;;;;;;5164673;28;20022;-70
2023/01/15 05:22:47;;;;;;;12.57;6.93;;;7.40;99.90;;;;;;5164554;28;20030;-69
2023/01/15 05:25:18;;;;;;;11.25;6.72;;;7.30;99.90;;;;;;5165065;28;20034;-70
2023/01/15 05:27:49;;;;;;;10.82;7.32;;;7.40;99.90;;;;;;5164963;28;20101;-69
2023/01/15 05:30:19;;;;;;;12.30;5.75;;;7.30;99.90;;;;;;5164297;28;20038;-73
2023/01/15 05:32:50;;;;;;;12.68;6.60;;;7.40;99.90;;;;;;5164573;28;20024;-74
2023/01/15 05:35:21;;;;;;;8.32;5.82;;;7.20;99.90;;;;;;5164626;28;20034;-74
2023/01/15 05:37:52;;;;;;;9.75;5.57;;;7.40;99.90;;;;;;5163178;28;20030;-74
2023/01/15 05:40:23;;;;;;;14.43;6.90;;;7.60;99.90;;;;;;5164597;28;20039;-68
2023/01/15 05:42:53;;;;;;;9.02;5.47;;;7.40;99.90;;;;;;5164418;28;20497;-71
2023/01/15 05:45:24;;;;;;;11.60;6.00;;;7.30;99.90;;;;;;5664498;23;20091;-68
2023/01/15 05:47:55;;;;;;;22.92;6.28;;;7.30;99.90;;;;;;5218424;28;20032;-72
2023/01/15 05:50:26;;;;;;;7.38;5.55;;;7.20;99.90;;;;;;5226164;28;20032;-70
2023/01/15 05:52:56;;;;;;;7.60;5.35;;;7.30;99.90;;;;;;5225687;28;20033;-74
2023/01/15 05:55:27;;;;;;;12.13;6.40;;;7.50;99.90;;;;;;5225733;28;20040;-75
2023/01/15 05:57:58;;;;;;;8.50;5.47;;;7.40;99.90;;;;;;5225902;28;20082;-75
2023/01/15 06:00:29;;;;;;;10.57;6.32;;;7.40;99.90;;;;;;5224369;28;20811;-68
2023/01/15 06:03:00;;;;;;;8.75;5.03;;;7.40;99.90;;;;;;5224149;28;20037;-73
2023/01/15 06:05:31;;;;;;;5.93;4.57;;;7.50;99.90;;;;;;5225480;28;20020;-74
2023/01/15 06:08:01;;;;;;;7.45;4.68;;;7.40;99.90;;;;;;5225497;28;20029;-74
2023/01/15 06:10:32;;;;;;;6.28;4.50;;;7.60;99.90;;;;;;5225511;28;20489;-69
2023/01/15 06:13:03;;;;;;;6.05;5.22;;;7.50;99.90;;;;;;5225529;28;20082;-69
2023/01/15 06:15:34;;;;;;;8.70;4.50;;;7.40;99.90;;;;;;5225150;28;20037;-69
2023/01/15 06:18:05;;;;;;;8.27;4.32;;;7.50;99.90;;;;;;5225366;28;20504;-71
2023/01/15 06:20:40;;;;;;;5.28;4.47;;;7.20;99.90;;;;;;5225308;28;20082;-71
2023/01/15 06:23:11;;;;;;;8.45;4.50;;;7.20;99.90;;;;;;5220896;28;20120;-69
2023/01/15 06:25:42;;;;;;;8.68;4.53;;;7.30;99.90;;;;;;5225397;28;20421;-70
2023/01/15 06:28:12;;;;;;;8.57;4.68;;;7.50;99.90;;;;;;5225462;28;20028;-71
2023/01/15 06:30:43;;;;;;;6.38;4.90;;;7.40;99.90;;;;;;5225492;28;20426;-69
2023/01/15 06:33:14;;;;;;;9.25;5.50;;;7.50;99.90;;;;;;5225376;28;20033;-69
2023/01/15 06:35:45;;;;;;;8.00;4.63;;;7.50;99.90;;;;;;5224004;28;20116;-75
2023/01/15 06:38:16;;;;;;;7.93;4.38;;;7.30;99.90;;;;;;5225233;28;20427;-68
2023/01/15 06:40:46;;;;;;;10.02;5.15;;;7.30;99.90;;;;;;5214366;28;20030;-71
2023/01/15 06:48:57;;;;;;;;;;;7.50;99.90;;;;;;5229673;28;20051;-70
2023/01/15 06:51:28;;;;;;;6.22;4.35;;;7.40;99.90;;;;;;5228953;28;19905;-73
2023/01/15 06:53:59;;;;;;;8.77;4.57;;;7.20;99.90;;;;;;5227521;28;20606;-69
2023/01/15 06:56:30;;;;;;;7.95;5.10;;;7.50;99.90;;;;;;5228846;28;20491;-72
2023/01/15 06:59:00;;;;;;;6.15;4.55;;;7.50;99.90;;;;;;5228950;28;20021;-69
2023/01/15 07:01:31;;;;;;;6.13;3.72;;;7.40;99.90;;;;;;5227476;28;20484;-70
2023/01/15 07:04:02;;;;;;;9.85;5.40;;;7.30;99.90;;;;;;5228827;28;20037;-75
2023/01/15 07:06:33;;;;;;;11.88;5.70;;;7.70;99.90;;;;;;5228798;28;20510;-68
2023/01/15 07:09:04;;;;;;;17.15;6.45;;;7.40;99.90;;;;;;5228629;28;20021;-73
2023/01/15 07:11:48;;;;;;;11.23;5.45;;;7.50;99.90;;;;;;5228380;28;20104;-68
2023/01/15 07:14:23;;;;;;;19.65;8.45;;;7.60;99.90;;;;;;5228410;28;20024;-70
2023/01/15 07:16:54;;;;;;;8.20;5.25;;;7.40;99.90;;;;;;5228445;28;20029;-70
2023/01/15 07:19:26;;;;;;;6.68;5.25;;;7.70;99.90;;;;;;5228348;28;20032;-69
2023/01/15 07:21:57;;;;;;;6.75;4.70;;;7.50;99.90;;;;;;5228211;28;20562;-73
2023/01/15 07:24:28;;;;;;;7.35;5.22;;;7.70;99.90;;;;;;5228078;28;20087;-74
2023/01/15 07:26:58;;;;;;;9.25;4.85;;;7.70;99.90;;;;;;5228177;28;20106;-69
2023/01/15 07:29:29;;;;;;;5.70;5.03;;;7.60;99.90;;;;;;5226771;28;20033;-72
2023/01/15 07:32:00;;;;;;;5.53;4.18;;;7.80;99.90;;;;;;5228081;28;20376;-70
2023/01/15 07:34:31;;;;;;;7.68;4.93;;;7.80;99.90;;;;;;5227993;28;20083;-69
2023/01/15 07:37:02;;;;;;;7.57;4.32;;;7.70;99.90;;;;;;5227774;28;20114;-72
2023/01/15 07:39:33;;;;;;;4.13;3.33;;;7.70;99.90;;;;;;5226557;28;20078;-71
2023/01/15 07:50:31;;;;;;;7.40;3.47;;;7.90;99.90;;;;;;5207285;28;20041;-69
2023/01/15 07:53:01;;;;;;;6.07;4.40;;;7.80;99.90;;;;;;5206896;28;20022;-74
2023/01/15 07:55:33;;;;;;;5.53;3.80;;;8.00;99.90;;;;;;5207029;28;20033;-72
2023/01/15 07:58:04;;;;;;;6.05;3.88;;;7.90;99.90;;;;;;5206798;28;20076;-69
2023/01/15 08:00:35;;;;;;;6.82;4.13;;;7.80;99.90;;;;;;5206929;28;20017;-75
2023/01/15 08:03:06;;;;;;;4.72;3.80;;;7.90;99.90;;;;;;5206701;28;20028;-68
2023/01/15 08:05:37;;;;;;;6.25;4.93;;;8.10;99.90;;;;;;5206818;28;20033;-72
2023/01/15 08:08:17;;;;;;;35.15;10.10;;;8.00;99.90;;;;;;5205435;28;20032;-69
2023/01/15 08:16:26;;;;;;;4.78;4.13;;;8.00;99.90;;;;;;5247192;28;20033;-73
2023/01/15 08:18:57;;;;;;;8.30;5.45;;;8.10;99.90;;;;;;5247483;28;20357;-69
2023/01/15 08:21:27;;;;;;;8.82;5.90;;;8.00;99.90;;;;;;5246961;28;20036;-69
2023/01/15 08:23:58;;;;;;;3.85;2.88;;;8.00;99.90;;;;;;5247433;28;20543;-69
2023/01/15 08:26:29;;;;;;;6.90;3.50;;;8.20;99.90;;;;;;5247687;28;20043;-69
2023/01/15 08:29:00;;;;;;;4.78;3.33;;;8.10;99.90;;;;;;5247594;28;20093;-68
2023/01/15 08:31:31;;;;;;;4.50;3.72;;;8.60;99.90;;;;;;5247481;28;20028;-74
2023/01/15 08:34:02;;;;;;;6.15;3.97;;;8.40;99.90;;;;;;5247314;28;20020;-69
2023/01/15 08:36:33;;;;;;;5.18;3.75;;;8.40;99.90;;;;;;5247347;28;20028;-72
2023/01/15 08:39:04;;;;;;;4.38;3.92;;;8.40;99.90;;;;;;5247457;28;20031;-74
2023/01/15 08:41:35;;;;;;;4.60;3.50;;;8.50;99.90;;;;;;5247491;28;20387;-72
2023/01/15 08:44:06;;;;;;;5.93;3.85;;;8.50;99.90;;;;;;5247277;28;20033;-73
2023/01/15 08:46:37;;;;;;;5.28;3.55;;;8.60;99.90;;;;;;5245601;28;20833;-72
2023/01/15 08:49:09;;;;;;;3.58;3.28;;;8.40;99.90;;;;;;5247421;28;20029;-72
2023/01/15 08:51:41;;;;;;;3.40;3.10;;;8.40;99.90;;;;;;5247134;28;20029;-69
2023/01/15 08:54:12;;;;;;;14.25;13.23;;;8.50;99.90;;;;;;5247017;28;20020;-75
2023/01/15 08:56:43;;;;;;;6.82;3.78;;;8.60;99.90;;;;;;5247196;28;20788;-75
2023/01/15 08:59:14;;;;;;;4.15;3.75;;;8.50;99.90;;;;;;5247021;28;20185;-75
2023/01/15 09:01:45;;;;;;;4.43;4.00;;;8.80;99.90;;;;;;5247083;28;20050;-68
2023/01/15 09:04:18;;;;;;;4.25;3.85;;;8.80;99.90;;;;;;5246212;28;20040;-75
2023/01/15 09:06:49;;;;;;;8.18;3.97;;;8.90;99.90;;;;;;5246971;28;20181;-69
2023/01/15 09:09:20;;;;;;;6.68;4.32;;;8.90;99.90;;;;;;5247016;28;20043;-75
2023/01/15 09:11:51;;;;;;;5.85;4.15;;;8.80;99.90;;;;;;5246900;28;20016;-70
2023/01/15 09:14:22;;;;;;;4.90;3.95;;;8.70;99.90;;;;;;5246716;28;20416;-75
2023/01/15 09:16:52;;;;;;;5.80;4.45;;;8.80;99.90;;;;;;5247314;28;20059;-76
2023/01/15 09:19:23;;;;;;;6.07;3.55;;;8.90;99.90;;;;;;5246937;28;20013;-74
2023/01/15 09:21:54;;;;;;;6.45;3.70;;;8.80;99.90;;;;;;5246688;28;20031;-74
2023/01/15 09:24:26;;;;;;;4.13;3.72;;;9.10;99.90;;;;;;5246463;28;20045;-69
2023/01/15 09:26:57;;;;;;;4.60;3.85;;;9.00;99.90;;;;;;5246720;28;20142;-75
2023/01/15 09:29:28;;;;;;;5.25;3.97;;;9.40;99.90;;;;;;5246697;28;20039;-76
2023/01/15 09:31:59;;;;;;;5.78;4.10;;;9.10;99.90;;;;;;5246494;28;20017;-73
2023/01/15 09:34:30;;;;;;;6.43;5.10;;;8.90;99.90;;;;;;5228127;28;20472;-74
2023/01/15 09:37:01;;;;;;;6.95;4.03;;;9.30;99.90;;;;;;5210167;28;20105;-77
2023/01/15 09:39:31;;;;;;;8.25;4.25;;;9.20;99.90;;;;;;5205142;28;20043;-72
2023/01/15 09:42:30;;;;;;;5.53;4.50;;;9.20;99.90;;;;;;5205147;28;20030;-75
2023/01/15 09:45:13;;;;;;;6.28;3.97;;;9.20;99.90;;;;;;5204670;28;20034;-74
2023/01/15 09:47:52;;;;;;;6.20;4.07;;;9.50;99.90;;;;;;5205072;28;20069;-76
2023/01/15 09:50:28;;;;;;;7.50;4.77;;;9.50;99.90;;;;;;5205361;28;20052;-71
2023/01/15 09:53:17;;;;;;;9.73;5.85;;;9.20;99.90;;;;;;5221136;28;20029;-74
2023/01/15 09:55:49;;;;;;;8.80;5.57;;;9.10;99.90;;;;;;5205039;28;20440;-75
2023/01/15 09:58:31;;;;;;;9.93;6.35;;;9.30;99.90;;;;;;5204988;28;20032;-75
2023/01/15 10:01:03;;;;;;;7.47;6.32;;;9.30;99.90;;;;;;5216331;28;20117;-68
2023/01/15 10:03:41;;;;;;;11.50;6.22;;;9.20;99.90;;;;;;5216305;28;20068;-75
2023/01/15 10:06:37;;;;;;;8.10;5.70;;;9.10;99.90;;;;;;5240879;28;20507;-75
2023/01/15 10:09:20;;;;;;;10.30;5.68;;;9.40;99.90;;;;;;5225597;28;20029;-69
2023/01/15 10:14:57;;;;;;;12.57;7.32;;;9.60;99.90;;;;;;5225528;28;20040;-69
2023/01/15 10:17:43;;;;;;;13.35;7.47;;;9.60;99.90;;;;;;5229049;28;20029;-70
2023/01/15 10:20:34;;;;;;;12.73;6.80;;;9.50;99.90;;;;;;5229954;28;20104;-68
2023/01/15 10:23:08;;;;;;;16.42;9.52;;;9.60;99.90;;;;;;5229610;28;20044;-69
2023/01/15 10:25:50;;;;;;;15.30;9.57;;;9.20;99.90;;;;;;5229847;28;20083;-68
2023/01/15 10:29:02;;;;;;;15.52;8.00;;;9.60;99.90;;;;;;5229583;28;20025;-69
2023/01/15 10:31:50;;;;;;;10.00;6.97;;;9.20;99.90;;;;;;5228876;28;20033;-68
2023/01/15 10:34:59;;;;;;;14.25;6.10;;;9.10;99.90;;;;;;5217460;28;20527;-75
2023/01/15 10:37:33;;;;;;;13.43;7.50;;;9.60;99.90;;;;;;5208453;28;20025;-69
2023/01/15 10:40:04;;;;;;;15.30;7.35;;;9.50;99.90;;;;;;5208209;28;20024;-76
2023/01/15 10:43:10;;;;;;;13.15;6.93;;;9.40;99.90;;;;;;5208239;28;20033;-75
2023/01/15 10:45:51;;;;;;;10.05;7.13;;;9.60;99.90;;;;;;5207972;28;20046;-75
2023/01/15 10:48:45;;;;;;;12.32;7.22;;;9.70;99.90;;;;;;5208245;28;20033;-75
2023/01/15 10:51:57;;;;;;;13.82;7.43;;;9.50;99.90;;;;;;5208202;28;20030;-76
2023/01/15 10:54:48;;;;;;;22.25;8.40;;;9.30;99.90;;;;;;5199125;28;20052;-75
2023/01/15 10:57:42;;;;;;;17.58;7.70;;;9.30;99.90;;;;;;5208239;28;20022;-74
2023/01/15 11:00:14;;;;;;;15.80;7.50;;;9.50;99.90;;;;;;5208075;28;20503;-75
2023/01/15 11:02:52;;;;;;;25.35;7.95;;;9.50;99.90;;;;;;5207827;28;20022;-74
2023/01/15 11:05:24;;;;;;;15.38;8.35;;;9.30;99.90;;;;;;5208115;28;20088;-74
2023/01/15 11:07:56;;;;;;;18.33;7.40;;;9.40;99.90;;;;;;5207980;28;20052;-73
2023/01/15 11:10:27;;;;;;;17.55;7.72;;;9.20;99.90;;;;;;5207895;28;20013;-76
2023/01/15 11:21:32;;;;;;;22.35;8.48;;;9.50;99.90;;;;;;5208012;28;20028;-75
2023/01/15 11:24:03;;;;;;;22.33;9.95;;;9.40;99.90;;;;;;5207514;28;20481;-75
2023/01/15 11:26:34;;;;;;;17.27;8.98;;;9.50;99.90;;;;;;5206407;28;20028;-76
2023/01/15 11:29:14;;;;;;;9.63;6.72;;;9.40;99.90;;;;;;5205633;28;20033;-73
2023/01/15 11:31:45;;;;;;;14.88;7.03;;;9.40;99.90;;;;;;5207871;28;20029;-75
2023/01/15 11:34:20;;;;;;;17.20;6.55;;;9.50;99.90;;;;;;5207833;28;20032;-75
2023/01/15 11:37:02;;;;;;;14.95;6.22;;;9.50;99.90;;;;;;5207347;28;20032;-76
2023/01/15 11:39:32;;;;;;;20.60;7.50;;;9.30;99.90;;;;;;5207407;28;20351;-75
2023/01/15 11:51:06;;;;;;;36.47;17.75;;;9.50;99.90;;;;;;5206797;28;19931;-76
2023/01/15 11:53:53;;;;;;;61.58;31.95;;;9.30;99.90;;;;;;5204837;28;20071;-67
2023/01/15 11:56:27;;;;;;;22.08;12.30;;;9.30;99.90;;;;;;5226335;28;20411;-75
2023/01/15 11:59:02;;;;;;;18.60;7.90;;;9.50;99.90;;;;;;5222152;28;20034;-74
2023/01/15 12:01:38;;;;;;;17.65;9.50;;;9.40;99.90;;;;;;5209635;28;20057;-74
2023/01/15 12:04:29;;;;;;;17.85;9.88;;;9.50;99.90;;;;;;5227303;28;20101;-68
2023/01/15 12:07:02;;;;;;;18.08;9.18;;;9.50;99.90;;;;;;5227535;28;20375;-68
2023/01/15 12:10:00;;;;;;;27.05;12.00;;;9.20;99.90;;;;;;5227301;28;20013;-69
2023/01/15 12:12:40;;;;;;;21.70;8.95;;;9.50;99.90;;;;;;5225172;28;20055;-74
2023/01/15 12:15:26;;;;;;;20.10;8.50;;;9.50;99.90;;;;;;5225111;28;20029;-68
2023/01/15 12:18:08;;;;;;;12.88;8.35;;;9.60;99.90;;;;;;5224276;28;20084;-73
2023/01/15 12:21:04;;;;;;;19.15;10.65;;;9.50;99.90;;;;;;5225993;28;20063;-73
2023/01/15 12:23:44;;;;;;;16.98;8.70;;;9.20;99.90;;;;;;5227355;28;20098;-72
2023/01/15 12:26:33;;;;;;;19.35;9.90;;;9.20;99.90;;;;;;5227224;28;20550;-70
2023/01/15 12:29:13;;;;;;;21.65;11.30;;;9.40;99.90;;;;;;5221635;28;20033;-68
2023/01/15 12:31:53;;;;;;;16.83;10.68;;;9.40;99.90;;;;;;5206440;28;20116;-73
2023/01/15 12:34:42;;;;;;;19.75;8.57;;;9.50;99.90;;;;;;5206298;28;20037;-73
2023/01/15 12:37:42;;;;;;;21.92;10.40;;;9.40;99.90;;;;;;5207849;28;20033;-69
2023/01/15 12:40:13;;;;;;;14.55;7.63;;;9.50;99.90;;;;;;5168711;28;20041;-69
2023/01/15 12:45:50;;;;;;;33.97;14.65;;;9.10;99.90;;;;;;5135600;28;20127;-74
2023/01/15 12:48:25;;;;;;;19.55;10.80;;;9.20;99.90;;;;;;5230323;28;20555;-76
2023/01/15 12:50:59;;;;;;;22.48;10.68;;;9.20;99.90;;;;;;5236627;28;20033;-74
2023/01/15 12:53:40;;;;;;;21.33;9.77;;;9.20;99.90;;;;;;5228080;28;20029;-74
2023/01/15 12:56:11;;;;;;;;;;;9.60;99.90;;;;;;5225118;28;20040;-74
2023/01/15 12:58:51;;;;;;;28.60;15.23;;;9.30;99.90;;;;;;5228546;28;19912;-74
2023/01/15 13:01:37;;;;;;;21.80;9.98;;;9.40;99.90;;;;;;5229327;28;20372;-74
2023/01/15 13:04:38;;;;;;;23.73;11.60;;;9.30;99.90;;;;;;5234897;28;20380;-74
2023/01/15 13:07:28;;;;;;;20.75;11.23;;;9.40;99.90;;;;;;5231547;28;20055;-72
2023/01/15 13:10:21;;;;;;;16.75;10.40;;;9.40;99.90;;;;;;5231530;28;20039;-72
2023/01/15 13:13:28;;;;;;;20.75;9.60;;;9.50;99.90;;;;;;5227467;28;20039;-75
2023/01/15 13:16:01;;;;;;;44.78;18.90;;;9.30;99.90;;;;;;5210824;28;20049;-75
2023/01/15 13:19:09;;;;;;;44.35;21.27;;;9.40;99.90;;;;;;5230711;28;20053;-76
2023/01/15 13:21:42;;;;;;;24.05;14.77;;;9.30;99.90;;;;;;5230755;28;20433;-76
2023/01/15 13:24:35;;;;;;;30.63;14.40;;;9.10;99.90;;;;;;5225346;28;20033;-73
2023/01/15 13:27:36;;;;;;;22.13;14.75;;;9.60;99.90;;;;;;5236977;28;20146;-71
2023/01/15 13:30:18;;;;;;;26.98;16.90;;;9.60;99.90;;;;;;5235168;28;20052;-71
2023/01/15 13:32:55;;;;;;;22.80;10.30;;;9.70;99.90;;;;;;5228768;28;20021;-77
2023/01/15 13:35:36;;;;;;;19.00;9.27;;;9.20;99.90;;;;;;5233876;28;20020;-68
2023/01/15 13:38:20;;;;;;;24.40;12.48;;;9.00;99.90;;;;;;5227231;28;20064;-79
2023/01/15 13:40:54;;;;;;;24.88;11.55;;;9.00;99.90;;;;;;5230858;28;20035;-73
2023/01/15 13:43:32;;;;;;;32.67;17.27;;;9.50;99.90;;;;;;5229456;28;20134;-77
2023/01/15 13:46:05;;;;;;;31.75;16.63;;;9.20;99.90;;;;;;5228020;28;20064;-76
2023/01/15 13:48:48;;;;;;;35.92;16.52;;;9.30;99.90;;;;;;5229578;28;20032;-72
2023/01/15 13:51:30;;;;;;;20.55;10.00;;;9.10;99.90;;;;;;5227334;28;20025;-76
2023/01/15 13:54:03;;;;;;;27.02;11.52;;;9.20;99.90;;;;;;5238879;28;20060;-74
2023/01/15 13:56:38;;;;;;;17.88;9.02;;;9.10;99.90;;;;;;5235533;28;20083;-80
2023/01/15 13:59:48;;;;;;;20.60;10.95;;;9.20;99.90;;;;;;5237337;28;20048;-74
2023/01/15 14:02:30;;;;;;;20.50;7.80;;;9.20;99.90;;;;;;5234691;28;20115;-75
2023/01/15 14:05:27;;;;;;;19.85;9.30;;;9.50;99.90;;;;;;5235618;28;20102;-76
2023/01/15 14:08:00;;;;;;;22.27;8.75;;;9.50;99.90;;;;;;5232725;28;20094;-72
2023/01/15 14:10:31;;;;;;;11.43;7.32;;;9.30;99.90;;;;;;5238467;28;20136;-75
2023/01/15 14:13:07;;;;;;;21.83;7.97;;;9.10;99.90;;;;;;5232388;28;20051;-76
2023/01/15 14:15:53;;;;;;;15.13;9.07;;;9.40;99.90;;;;;;5232215;28;20037;-69
2023/01/15 14:18:28;;;;;;;23.98;12.07;;;9.20;99.90;;;;;;5233166;28;20035;-72
2023/01/15 14:21:39;;;;;;;23.55;11.93;;;9.50;99.90;;;;;;5234446;28;20922;-73
2023/01/15 14:24:37;;;;;;;29.95;13.05;;;9.30;99.90;;;;;;5239877;28;20047;-70
2023/01/15 14:27:37;;;;;;;29.85;15.50;;;9.10;99.90;;;;;;5239564;28;20036;-72